• Join FlightAware (Why Join?)
  • Login
  • US Flag 
 
06:44AM EST


 

Airport Tracker/Info


-or-


 

Live Flight TrackerFlight Track Log ✈ G-VFAB ✈ 04-Jun-2013 ✈ EGLL / LHR - KSFO

Flight Track Log - Related Links

Times and Time Zones

All times are in EDT time to prevent confusion due to time zone crossing. See the G-VFAB flight status page for this flight to view local times or setup timezone preferences in your user account.

Time Position Orientation Groundspeed Altitude Reporting Facility
EDT Latitude Longitude Course Direction KTS MPH feet Rate Location/Type
07:42AM 51.4671 -0.4024 44° Northeast 186 214 1,000  Level FlightAware UK
07:42AM 51.4770 -0.3870 47° Northeast 169 194 1,500 1,440 Climbing FlightAware
07:43AM 51.4920 -0.3590 49° Northeast 204 235 2,100 1,260 Climbing FlightAware
07:43AM 51.5090 -0.3270 50° Northeast 225 259 2,600 1,260 Climbing FlightAware
07:43AM 51.5224 -0.2977 54° Northeast 234 269 3,100 1,860 Climbing FlightAware ADS-B
07:43AM 51.5268 -0.2859 59° Northeast 228 262 3,500 2,160 Climbing FlightAware ADS-B
07:44AM 51.5357 -0.2608 60° Northeast 229 264 4,000 1,680 Climbing FlightAware ADS-B
07:44AM 51.5390 -0.2557 44° Northeast 231 266 4,100 1,320 Climbing FlightAware ADS-B
07:44AM 51.5431 -0.2505 38° Northeast 233 268 4,200 1,620 Climbing FlightAware ADS-B
07:44AM 51.5487 -0.2461 26° Northeast 236 272 4,400 1,980 Climbing FlightAware ADS-B
07:44AM 51.5553 -0.2431 16° North 239 275 4,600 1,620 Climbing FlightAware ADS-B
07:44AM 51.5608 -0.2411 13° North 243 280 4,700 1,140 Climbing FlightAware ADS-B
07:44AM 51.5791 -0.2363 North 257 296 5,000 1,200 Climbing FlightAware ADS-B
07:45AM 51.5895 -0.2349 North 266 306 5,200 1,200 Climbing FlightAware ADS-B
07:45AM 51.5977 -0.2356 357° North 274 315 5,300 1,380 Climbing FlightAware ADS-B
07:45AM 51.6067 -0.2379 351° North 281 323 5,500 1,200 Climbing FlightAware ADS-B
07:45AM 51.6170 -0.2414 348° North 286 329 5,600 480 Climbing FlightAware ADS-B
07:45AM 51.6375 -0.2493 347° North 288 331 5,700  Climbing FlightAware ADS-B
07:45AM 51.6587 -0.2576 346° North 290 334 5,600  Descending FlightAware ADS-B
07:46AM 51.6788 -0.2656 346° North 288 331 5,700 360 Climbing FlightAware ADS-B
07:46AM 51.6986 -0.2729 347° North 291 335 5,800 1,500 Climbing FlightAware ADS-B
07:46AM 51.7196 -0.2807 347° North 294 338 6,500 2,040 Climbing FlightAware ADS-B
07:47AM 51.7412 -0.2891 347° North 304 350 6,900 1,500 Climbing FlightAware ADS-B
07:47AM 51.7623 -0.2970 347° North 316 364 7,300 1,320 Climbing FlightAware ADS-B
07:47AM 51.7859 -0.3054 348° North 330 380 7,600 960 Climbing FlightAware ADS-B
07:47AM 51.8092 -0.3133 348° North 344 396 7,800 960 Climbing FlightAware ADS-B
07:48AM 51.8346 -0.3216 348° North 358 412 8,100 1,260 Climbing FlightAware ADS-B
07:48AM 51.8611 -0.3297 349° North 368 423 8,500 1,740 Climbing FlightAware ADS-B
07:48AM 51.8865 -0.3374 349° North 373 429 9,000 1,920 Climbing FlightAware ADS-B
07:48AM 51.9137 -0.3458 349° North 378 435 9,500 2,040 Climbing FlightAware ADS-B
07:49AM 51.9665 -0.3606 350° North 386 444 10,600 2,040 Climbing FlightAware ADS-B
07:49AM 51.9937 -0.3688 350° North 392 451 11,100 1,920 Climbing FlightAware UK
07:50AM 52.0374 -0.3806 350° North 394 453 11,900 1,800 Climbing FlightAware ADS-B
07:50AM 52.0692 -0.3893 350° North 398 458 12,400 1,860 Climbing FlightAware UK
07:50AM 52.0954 -0.3955 350° North 402 463 12,900 1,920 Climbing FlightAware ADS-B
07:51AM 52.1539 -0.4095 352° North 408 470 13,900 1,860 Climbing FlightAware ADS-B
07:51AM 52.2020 -0.4225 351° North 414 476 14,700 1,620 Climbing FlightAware ADS-B
07:51AM 52.2371 -0.4344 348° North 419 482 15,100 1,560 Climbing FlightAware ADS-B
07:51AM 52.2502 -0.4417 341° North 421 484 15,400 2,160 Climbing FlightAware ADS-B
07:51AM 52.2573 -0.4467 337° Northwest 422 486 15,500 1,320 Climbing FlightAware ADS-B
07:52AM 52.2892 -0.4768 337° Northwest 420 483 15,900 1,560 Climbing FlightAware UK
07:52AM 52.3088 -0.4964 337° Northwest 431 496 16,300 1,800 Climbing FlightAware ADS-B
07:53AM 52.3600 -0.5523 326° Northwest 438 504 17,200 1,920 Climbing FlightAware ADS-B
07:53AM 52.4138 -0.6084 328° Northwest 444 511 18,300 1,980 Climbing FlightAware ADS-B
07:53AM 52.4527 -0.6506 328° Northwest 444 511 19,000 1,980 Climbing FlightAware UK
07:54AM 52.4716 -0.6688 328° Northwest 450 518 19,400 1,980 Climbing FlightAware ADS-B
07:54AM 52.5165 -0.7157 328° Northwest 450 518 20,200 1,860 Climbing FlightAware UK
07:54AM 52.5441 -0.7432 328° Northwest 456 525 20,700 1,860 Climbing FlightAware ADS-B
07:55AM 52.6016 -0.8004 329° Northwest 464 534 21,700 1,920 Climbing FlightAware ADS-B
07:55AM 52.6356 -0.8374 329° Northwest 460 529 22,300 1,860 Climbing FlightAware UK
07:56AM 52.7129 -0.9166 329° Northwest 467 537 23,600 1,740 Climbing FlightAware ADS-B
07:57AM 52.8004 -1.0055 328° Northwest 484 557 24,900 1,620 Climbing FlightAware ADS-B
07:57AM 52.8493 -1.0577 328° Northwest 482 555 25,600 1,740 Climbing FlightAware UK
07:57AM 52.8605 -1.0687 328° Northwest 490 564 25,800 1,620 Climbing FlightAware ADS-B
07:58AM 52.9255 -1.1345 329° Northwest 496 571 26,700 1,500 Climbing FlightAware ADS-B
07:58AM 52.9768 -1.1897 329° Northwest 494 568 27,300 1,500 Climbing FlightAware UK
07:58AM 52.9892 -1.2018 329° Northwest 502 578 27,500 1,560 Climbing FlightAware ADS-B
07:59AM 53.0364 -1.2521 329° Northwest 498 573 28,100 1,560 Climbing FlightAware UK
07:59AM 53.0488 -1.2633 329° Northwest 505 581 28,300 1,500 Climbing FlightAware ADS-B
07:59AM 53.1072 -1.3255 329° Northwest 496 571 29,000 1,020 Climbing FlightAware UK
07:59AM 53.1270 -1.3450 329° Northwest 505 581 29,000  Level FlightAware
08:00AM 53.1904 -1.4117 329° Northwest 498 573 29,000 960 Level FlightAware UK
08:00AM 53.2363 -1.4580 329° Northwest 504 580 29,900 2,100 Climbing FlightAware ADS-B
08:01AM 53.3088 -1.5336 329° Northwest 490 564 31,100 1,860 Climbing FlightAware UK
08:01AM 53.3320 -1.5570 329° Northwest 493 567 31,500 1,260 Climbing FlightAware
08:02AM 53.3897 -1.6174 329° Northwest 486 559 32,000 720 Climbing FlightAware UK
08:02AM 53.4080 -1.6350 329° Northwest 494 568 32,000 840 Level FlightAware
08:02AM 53.4718 -1.7010 329° Northwest 486 559 32,600 1,260 Climbing FlightAware UK
08:03AM 53.4990 -1.7290 329° Northwest 492 566 33,000 1,380 Climbing FlightAware
08:03AM 53.5536 -1.7844 329° Northwest 480 552 33,600 1,380 Climbing FlightAware UK
08:03AM 53.5750 -1.8050 329° Northwest 489 563 33,900 420 Climbing FlightAware
08:04AM 53.6580 -1.8750 333° Northwest 492 566 34,000 60 Climbing FlightAware
08:05AM 53.7440 -1.9450 334° Northwest 490 564 34,000  Level FlightAware
08:05AM 53.8087 -1.9983 334° Northwest 474 545 34,000  Level FlightAware UK
08:05AM 53.8360 -2.0200 334° Northwest 484 557 34,000  Level FlightAware
08:06AM 53.8686 -2.0486 334° Northwest 474 545 34,000  Level FlightAware UK
08:06AM 53.9040 -2.0788 333° Northwest 474 545 34,000  Level FlightAware UK
08:06AM 53.9150 -2.0880 333° Northwest 482 555 34,000  Level FlightAware
08:06AM 53.9755 -2.1399 333° Northwest 472 543 34,000  Level FlightAware UK
08:07AM 54.0060 -2.1660 333° Northwest 480 552 34,000  Level FlightAware
08:07AM 54.0589 -2.2112 333° Northwest 468 539 34,000  Level FlightAware UK
08:07AM 54.0840 -2.2320 333° Northwest 480 552 34,000  Level FlightAware
08:08AM 54.1532 -2.2957 333° Northwest 470 541 34,000  Level FlightAware UK
08:08AM 54.1650 -2.3080 333° Northwest 481 554 34,000  Level FlightAware
08:08AM 54.1982 -2.3443 333° Northwest 470 541 34,000  Level FlightAware UK
08:09AM 54.2450 -2.3980 333° Northwest 480 552 34,000  Level FlightAware
08:09AM 54.2750 -2.4334 333° Northwest 470 541 34,000  Level FlightAware UK
08:10AM 54.3220 -2.4890 333° Northwest 481 554 34,000  Level FlightAware
08:10AM 54.3515 -2.5251 333° Northwest 470 541 34,000  Level FlightAware UK
08:10AM 54.3530 -2.5260 333° Northwest 481 554 34,000  Level FlightAware
08:10AM 54.4278 -2.6176 333° Northwest 472 543 34,000  Level FlightAware UK
08:11AM 54.4730 -2.6720 333° Northwest 482 555 34,000  Level FlightAware
08:12AM 54.5260 -2.7360 325° Northwest 482 555 34,000  Level FlightAware
08:12AM 54.6280 -2.8600 325° Northwest 481 554 34,000  Level FlightAware
08:13AM 54.6563 -2.8968 325° Northwest 474 545 34,000  Level FlightAware UK
08:13AM 54.6889 -2.9368 325° Northwest 474 545 34,000  Level FlightAware UK
08:13AM 54.7060 -2.9560 325° Northwest 479 551 34,000  Level FlightAware
08:13AM 54.7539 -3.0168 325° Northwest 472 543 34,000  Level FlightAware UK
08:14AM 54.7800 -3.0490 325° Northwest 478 550 34,000  Level FlightAware
08:14AM 54.8183 -3.0964 325° Northwest 472 543 34,000  Level FlightAware UK
08:14AM 54.8520 -3.1380 325° Northwest 478 550 34,000  Level FlightAware
08:15AM 54.8934 -3.1897 325° Northwest 470 541 34,000  Level FlightAware UK
08:15AM 54.9170 -3.2190 324° Northwest 479 551 34,000  Level FlightAware
08:15AM 54.9261 -3.2306 324° Northwest 470 541 34,000  Level FlightAware UK
08:15AM 54.9476 -3.2575 324° Northwest 470 541 34,000  Level FlightAware UK
08:16AM 54.9800 -3.2980 324° Northwest 474 545 34,000  Level FlightAware UK
08:16AM 54.9810 -3.2980 324° Northwest 482 555 34,000  Level FlightAware
08:16AM 55.0660 -3.4050 324° Northwest 484 557 34,000  Level FlightAware
08:17AM 55.1432 -3.5034 324° Northwest 472 543 34,000  Level FlightAware UK
08:17AM 55.1590 -3.5220 324° Northwest 486 559 34,000  Level FlightAware
08:18AM 55.2197 -3.6001 324° Northwest 476 548 34,000  Level FlightAware UK
08:18AM 55.2300 -3.6120 324° Northwest 489 563 34,000  Level FlightAware
08:18AM 55.2746 -3.6697 324° Northwest 476 548 34,000  Level FlightAware UK
08:19AM 55.3070 -3.7100 324° Northwest 489 563 34,000  Level FlightAware
08:19AM 55.3733 -3.7967 324° Northwest 474 545 34,000  Level FlightAware UK
08:19AM 55.3870 -3.8140 324° Northwest 492 566 34,000  Level FlightAware
08:20AM 55.4500 -3.8957 324° Northwest 476 548 34,000  Level FlightAware UK
08:20AM 55.4610 -3.9100 324° Northwest 493 567 34,000  Level FlightAware
08:21AM 55.5383 -4.0097 324° Northwest 476 548 34,000  Level FlightAware UK
08:21AM 55.5340 -4.0030 324° Northwest 494 568 34,000  Level FlightAware
08:21AM 55.5824 -4.0669 324° Northwest 478 550 34,000  Level FlightAware UK
08:21AM 55.6155 -4.1101 324° Northwest 476 548 34,000  Level FlightAware UK
08:22AM 55.6486 -4.1532 324° Northwest 476 548 34,000  Level FlightAware UK
08:22AM 55.6440 -4.1470 324° Northwest 495 570 34,000  Level FlightAware
08:22AM 55.6814 -4.1958 324° Northwest 476 548 34,000  Level FlightAware UK
08:22AM 55.7200 -4.2450 323° Northwest 493 567 34,000  Level FlightAware
08:22AM 55.7257 -4.2543 323° Northwest 472 543 34,000  Level FlightAware UK
08:23AM 55.7900 -4.3390 323° Northwest 491 565 34,000  Level FlightAware
08:23AM 55.8021 -4.3548 323° Northwest 466 536 34,000  Level FlightAware UK
08:23AM 55.8240 -4.3836 323° Northwest 468 539 34,000  Level FlightAware UK
08:24AM 55.8577 -4.4248 326° Northwest 468 539 34,000  Level FlightAware UK
08:24AM 55.8680 -4.4340 326° Northwest 492 566 34,000  Level FlightAware
08:24AM 55.9159 -4.4884 326° Northwest 468 539 34,000  Level FlightAware UK
08:24AM 55.9560 -4.5320 326° Northwest 495 570 34,000  Level FlightAware
08:25AM 56.0209 -4.6046 326° Northwest 472 543 34,000  Level FlightAware UK
08:25AM 56.0679 -4.6568 328° Northwest 472 543 34,000  Level FlightAware UK
08:25AM 56.0670 -4.6560 328° Northwest 491 565 34,000  Level FlightAware
08:26AM 56.1031 -4.6958 328° Northwest 472 543 34,000  Level FlightAware UK
08:26AM 56.1381 -4.7354 328° Northwest 468 539 34,000  Level FlightAware UK
08:26AM 56.1450 -4.7410 328° Northwest 499 574 34,000  Level FlightAware
08:27AM 56.2068 -4.8196 328° Northwest 472 543 34,000  Level FlightAware UK
08:27AM 56.2210 -4.8410 328° Northwest 498 573 34,000  Level FlightAware
08:27AM 56.2466 -4.8903 328° Northwest 472 543 34,000  Level FlightAware UK
08:27AM 56.2752 -4.9448 313° West 474 545 34,000  Level FlightAware UK
08:27AM 56.2920 -4.9770 313° West 501 577 34,000  Level FlightAware
08:28AM 56.3234 -5.0368 313° West 474 545 34,000  Level FlightAware UK
08:28AM 56.3660 -5.1160 313° West 502 578 34,000  Level FlightAware
08:29AM 56.4097 -5.2039 313° West 476 548 34,000  Level FlightAware UK
08:29AM 56.4280 -5.2370 313° West 501 577 34,000  Level FlightAware
08:30AM 56.4920 -5.3610 313° West 501 577 34,000  Level FlightAware
08:30AM 56.4956 -5.3715 313° West 474 545 34,000  Level FlightAware UK
08:30AM 56.5610 -5.4720 313° West 493 567 34,000  Level FlightAware
08:30AM 56.5706 -5.4833 313° West 472 543 34,000  Level FlightAware UK
08:30AM 56.5956 -5.5042 313° West 474 545 34,000  Level FlightAware UK
08:31AM 56.6334 -5.5347 336° Northwest 474 545 34,000  Level FlightAware UK
08:31AM 56.6500 -5.5470 336° Northwest 489 563 34,000  Level FlightAware
08:31AM 56.6965 -5.5847 336° Northwest 470 541 34,000  Level FlightAware UK
08:32AM 56.7339 -5.6151 336° Northwest 466 536 34,000  Level FlightAware UK
08:32AM 56.7410 -5.6200 336° Northwest 488 562 34,000  Level FlightAware
08:32AM 56.7831 -5.6551 336° Northwest 464 534 34,000  Level FlightAware UK
08:32AM 56.8201 -5.6848 336° Northwest 464 534 34,000  Level FlightAware UK
08:32AM 56.8310 -5.6930 336° Northwest 478 550 34,000  Level FlightAware
08:33AM 56.8693 -5.7247 336° Northwest 464 534 34,000  Level FlightAware UK
08:33AM 56.9061 -5.7546 336° Northwest 462 532 34,000  Level FlightAware UK
08:33AM 56.9140 -5.7570 336° Northwest 473 544 34,000  Level FlightAware
08:33AM 56.9579 -5.7741 336° Northwest 460 529 34,000  Level FlightAware UK
08:34AM 56.9971 -5.7806 355° North 460 529 34,000  Level FlightAware UK
08:34AM 57.0120 -5.7830 355° North 465 535 34,000  Level FlightAware
08:34AM 57.0494 -5.7879 355° North 460 529 34,000  Level FlightAware UK
08:34AM 57.0885 -5.7938 355° North 460 529 34,000  Level FlightAware UK
08:34AM 57.0980 -5.7950 355° North 464 534 34,000  Level FlightAware
08:35AM 57.1407 -5.8016 355° North 458 527 34,000  Level FlightAware UK
08:35AM 57.1798 -5.8075 355° North 460 529 34,000  Level FlightAware UK
08:35AM 57.1690 -5.8060 355° North 472 543 34,000  Level FlightAware
08:36AM 57.2750 -5.8220 355° North 472 543 34,000  Level FlightAware
08:36AM 57.2842 -5.8231 355° North 460 529 34,000  Level FlightAware UK
08:36AM 57.3233 -5.8290 355° North 460 529 34,000  Level FlightAware UK
08:36AM 57.3625 -5.8346 356° North 460 529 34,000  Level FlightAware UK
08:37AM 57.3800 -5.8370 356° North 473 544 34,000  Level FlightAware
08:37AM 57.4672 -5.8496 356° North 460 529 34,000  Level FlightAware UK
08:37AM 57.4680 -5.8500 356° North 474 545 34,000  Level FlightAware
08:38AM 57.5064 -5.8553 356° North 462 532 34,000  Level FlightAware UK
08:38AM 57.5457 -5.8613 355° North 462 532 34,000  Level FlightAware UK
08:38AM 57.5530 -5.8620 355° North 475 547 34,000  Level FlightAware
08:38AM 57.5978 -5.8788 355° North 462 532 34,000  Level FlightAware UK
08:39AM 57.6346 -5.9074 337° Northwest 460 529 34,000  Level FlightAware UK
08:39AM 57.6480 -5.9220 337° Northwest 485 558 34,000  Level FlightAware
08:39AM 57.6885 -5.9830 337° Northwest 462 532 34,000  Level FlightAware UK
08:39AM 57.7080 -6.0240 309° West 492 566 34,000  Level FlightAware
08:39AM 57.7142 -6.0419 309° West 464 534 34,000  Level FlightAware UK
08:40AM 57.7280 -6.0868 309° West 468 539 34,000  Level FlightAware UK
08:40AM 57.7435 -6.1595 292° West 474 545 34,000  Level FlightAware UK
08:40AM 57.7490 -6.1960 292° West 508 585 34,000  Level FlightAware
08:40AM 57.7614 -6.2870 292° West 480 552 34,000  Level FlightAware UK
08:41AM 57.7710 -6.3638 283° West 484 557 34,000  Level FlightAware UK
08:41AM 57.7710 -6.3730 283° West 516 594 34,000  Level FlightAware
08:41AM 57.7810 -6.4694 283° West 484 557 34,000  Level FlightAware UK
08:41AM 57.7881 -6.5488 279° West 486 559 34,000  Level FlightAware UK
08:41AM 57.7880 -6.5530 279° West 517 595 34,000  Level FlightAware
08:42AM 57.7967 -6.6554 279° West 490 564 34,000  Level FlightAware UK
08:42AM 57.8028 -6.7359 278° West 492 566 34,000  Level FlightAware UK
08:42AM 57.8030 -6.7360 278° West 524 603 34,000  Level FlightAware
08:42AM 57.8090 -6.8170 278° West 494 568 34,000  Level FlightAware UK
08:43AM 57.8150 -6.8982 278° West 494 568 34,000  Level FlightAware UK
08:43AM 57.8180 -6.9340 278° West 526 605 34,000  Level FlightAware
08:43AM 57.8247 -7.0337 278° West 494 568 34,000  Level FlightAware UK
08:43AM 57.8306 -7.1152 278° West 496 571 34,000  Level FlightAware UK
08:44AM 57.8320 -7.1420 278° West 527 606 34,000  Level FlightAware
08:44AM 57.8381 -7.2239 278° West 496 571 34,000  Level FlightAware UK
08:44AM 57.8436 -7.3055 277° West 496 571 34,000  Level FlightAware UK
08:44AM 57.8492 -7.3872 277° West 496 571 34,000  Level FlightAware UK
08:44AM 57.8490 -7.3910 277° West 528 608 34,000  Level FlightAware
08:45AM 57.8547 -7.4688 277° West 496 571 34,000  Level FlightAware UK
08:45AM 57.8602 -7.5505 277° West 496 571 34,000  Level FlightAware UK
08:45AM 57.8620 -7.5680 277° West 528 608 34,000  Level FlightAware
08:45AM 57.8674 -7.6596 277° West 496 571 34,000  Level FlightAware UK
08:46AM 57.8728 -7.7404 277° West 496 571 34,000  Level FlightAware UK
08:46AM 57.8740 -7.7640 277° West 528 608 34,000  Level FlightAware
08:46AM 57.8800 -7.8496 277° West 496 571 34,000  Level FlightAware UK
08:46AM 57.8851 -7.9315 277° West 496 571 34,000  Level FlightAware UK
08:47AM 57.8870 -7.9640 277° West 529 609 34,000  Level FlightAware
08:47AM 57.8937 -8.0682 277° West 496 571 34,000  Level FlightAware UK
08:47AM 57.8989 -8.1502 277° West 494 568 34,000  Level FlightAware UK
08:47AM 57.8990 -8.1510 277° West 528 608 34,000  Level FlightAware
08:48AM 57.9040 -8.2323 277° West 494 568 34,000  Level FlightAware UK
08:48AM 57.9090 -8.3146 277° West 494 568 34,000  Level FlightAware UK
08:48AM 57.9100 -8.3340 277° West 529 609 34,000  Level FlightAware
08:48AM 57.9158 -8.4242 277° West 494 568 34,000  Level FlightAware UK
08:49AM 57.9208 -8.5067 277° West 494 568 34,000  Level FlightAware UK
08:49AM 57.9230 -8.5400 277° West 531 611 34,000  Level FlightAware
08:49AM 57.9288 -8.6443 277° West 494 568 34,000  Level FlightAware UK
08:49AM 57.9336 -8.7271 276° West 494 568 34,000  Level FlightAware UK
08:49AM 57.9330 -8.7280 276° West 532 612 34,000  Level FlightAware
08:50AM 57.9383 -8.8099 276° West 496 571 34,000  Level FlightAware UK
08:50AM 57.9429 -8.8928 276° West 496 571 34,000  Level FlightAware UK
08:50AM 57.9450 -8.9350 276° West 533 613 34,000  Level FlightAware
08:51AM 57.9550 -9.1190 276° West 533 613 34,000  Level FlightAware
08:51AM 57.9650 -9.3070 276° West 528 608 34,000  Level FlightAware
08:52AM 57.9760 -9.5080 276° West 525 604 34,000  Level FlightAware
08:53AM 57.9850 -9.6890 275° West 524 603 34,000  Level FlightAware
08:54AM 57.9960 -9.8930 276° West 525 604 34,000  Level FlightAware
08:54AM 58.0360 -10.0660 294° West 534 615 34,000  Level FlightAware
08:55AM 58.1100 -10.2260 311° West 528 608 34,000  Level FlightAware
08:56AM 58.1640 -10.3360 313° West 528 608 34,000  Level FlightAware
08:56AM 58.2310 -10.4720 313° West 527 606 34,000  Level FlightAware
08:57AM 58.3180 -10.6510 313° West 526 605 34,000  Level FlightAware
08:58AM 58.3840 -10.7900 312° West 533 613 34,000  Level FlightAware
08:58AM 58.4400 -10.9090 312° West 532 612 34,000  Level FlightAware
08:59AM 58.5170 -11.0720 312° West 534 615 34,000  Level FlightAware
09:00AM 58.5800 -11.2060 312° West 535 616 34,000  Level FlightAware
09:01AM 58.6550 -11.3650 312° West 536 617 34,000  Level FlightAware
09:01AM 58.7270 -11.5220 311° West 537 618 34,000  Level FlightAware
09:02AM 58.7960 -11.6720 312° West 537 618 34,000  Level FlightAware
09:03AM 58.8620 -11.8190 311° West 537 618 34,000  Level FlightAware
09:03AM 58.9230 -11.9550 311° West 537 618 34,000  Level FlightAware
09:04AM 59.0020 -12.1260 312° West 538 619 34,000  Level FlightAware
09:05AM 59.0660 -12.2710 311° West 538 619 34,000  Level FlightAware
09:05AM 59.1290 -12.4100 311° West 538 619 34,000  Level FlightAware
09:06AM 59.1990 -12.5710 310° West 538 619 34,000  Level FlightAware
09:07AM 59.2490 -12.6880 310° West 538 619 34,000  Level FlightAware
09:08AM 59.3140 -12.8410 310° West 538 619 34,000  Level FlightAware
09:08AM 59.3630 -12.9550 310° West 538 619 34,000  Level FlightAware
09:09AM 59.4300 -13.1110 310° West 538 619 34,000  Level FlightAware
09:10AM 59.4790 -13.2260 310° West 538 619 34,000  Level FlightAware
09:10AM 59.5410 -13.3730 310° West 538 619 34,000  Level FlightAware
09:11AM 59.6010 -13.5140 310° West 538 619 34,000  Level FlightAware
09:12AM 59.6660 -13.6680 310° West 538 619 34,000  Level FlightAware
09:13AM 59.7150 -13.7830 310° West 538 619 34,000  Level FlightAware
09:13AM 59.7790 -13.9350 310° West 538 619 34,000  Level FlightAware
09:14AM 59.8280 -14.0510 310° West 538 619 34,000  Level FlightAware
09:17AM 60.0137 -14.5892 305° West  Level Estimated
09:18AM 60.0859 -14.8020 304° West  Level Estimated
09:19AM 60.1578 -15.0156 304° West  Level Estimated
09:20AM 60.2293 -15.2302 304° West  Level Estimated
09:21AM 60.3005 -15.4457 304° West  Level Estimated
09:22AM 60.3713 -15.6622 304° West  Level Estimated
09:23AM 60.4418 -15.8796 303° West  Level Estimated
09:23AM 60.7570 -16.4060 303° West 537 618 34,000  Level FlightAware
09:23AM 60.8190 -16.5680 308° West 537 618 34,000  Level FlightAware
09:24AM 60.8860 -16.7540 307° West 537 618 34,000  Level FlightAware
09:25AM 60.9400 -16.9000 307° West 537 618 34,000  Level FlightAware
09:25AM 61.0090 -17.0890 307° West 538 619 34,000  Level FlightAware
09:26AM 61.0720 -17.2610 307° West 538 619 34,000  Level FlightAware
09:27AM 61.1330 -17.4340 306° West 538 619 34,000  Level FlightAware
09:28AM 61.1950 -17.6080 307° West 537 618 34,000  Level FlightAware
09:28AM 61.2510 -17.7650 307° West 536 617 34,000  Level FlightAware
09:29AM 61.3180 -17.9560 306° West 534 615 34,000  Level FlightAware
09:30AM 61.3750 -18.1220 306° West 532 612 34,000  Level FlightAware
09:30AM 61.4390 -18.3050 306° West 530 610 34,000  Level FlightAware
09:31AM 61.5010 -18.4880 305° West 528 608 34,000  Level FlightAware
09:32AM 61.5580 -18.6540 306° West 525 604 34,000  Level FlightAware
09:32AM 61.6160 -18.8280 305° West 524 603 34,000  Level FlightAware
09:33AM 61.6720 -18.9940 305° West 524 603 34,000  Level FlightAware
09:34AM 61.7270 -19.1610 305° West 524 603 34,000  Level FlightAware
09:35AM 61.7920 -19.3540 306° West 524 603 34,000  Level FlightAware
09:35AM 61.8470 -19.5230 305° West 526 605 34,000  Level FlightAware
09:36AM 61.9050 -19.7010 305° West 527 606 34,000  Level FlightAware
09:37AM 61.9680 -19.8980 304° West 529 609 34,000  Level FlightAware
09:37AM 62.0280 -20.0510 310° West 538 619 34,000  Level FlightAware
09:38AM 62.1060 -20.2140 316° Northwest 539 620 34,000  Level FlightAware
09:39AM 62.1800 -20.3600 317° Northwest 541 623 34,000  Level FlightAware
09:40AM 62.2610 -20.5250 317° Northwest 541 623 34,000  Level FlightAware
09:40AM 62.3380 -20.6850 316° Northwest 542 624 34,000  Level FlightAware
09:41AM 62.4070 -20.8270 316° Northwest 542 624 34,000  Level FlightAware
09:42AM 62.4870 -20.9960 316° Northwest 543 625 34,000  Level FlightAware
09:42AM 62.5580 -21.1440 316° Northwest 543 625 34,000  Level FlightAware
09:43AM 62.6230 -21.2800 316° Northwest 544 626 34,000  Level FlightAware
09:44AM 62.7130 -21.4760 315° West 544 626 34,000  Level FlightAware
09:44AM 62.7870 -21.6340 316° Northwest 545 627 34,000  Level FlightAware
09:46AM 62.8980 -21.8740 315° West 545 627 34,000  Level FlightAware
09:46AM 62.9840 -22.0620 315° West 546 628 34,000  Level FlightAware
09:47AM 63.0580 -22.2270 315° West 547 629 34,000  Level FlightAware
09:48AM 63.1300 -22.3850 315° West 548 631 34,000  Level FlightAware
09:48AM 63.2120 -22.5690 315° West 548 631 34,000  Level FlightAware
09:49AM 63.2830 -22.7300 314° West 549 632 34,000  Level FlightAware
09:50AM 63.3470 -22.8790 314° West 550 633 34,000  Level FlightAware
09:50AM 63.4270 -23.0620 314° West 550 633 34,000  Level FlightAware
09:51AM 63.5020 -23.2330 315° West 550 633 34,000  Level FlightAware
09:52AM 63.5830 -23.4230 314° West 550 633 34,000  Level FlightAware
09:53AM 63.6520 -23.5880 313° West 551 634 34,000  Level FlightAware
09:53AM 63.7220 -23.7550 313° West 552 635 34,000  Level FlightAware
09:54AM 63.7890 -23.9140 314° West 552 635 34,000  Level FlightAware
09:55AM 63.9080 -24.2050 313° West 552 635 34,000  Level FlightAware
09:56AM 63.9890 -24.4010 313° West 554 638 34,000  Level FlightAware
09:56AM 64.0610 -24.5760 313° West 554 638 34,000  Level FlightAware
09:57AM 64.1300 -24.7480 313° West 554 638 34,000  Level FlightAware
09:58AM 64.2110 -24.9520 312° West 555 639 34,000  Level FlightAware
09:59AM 64.2840 -25.1360 312° West 557 641 34,000  Level FlightAware
09:59AM 64.3410 -25.2810 312° West 558 642 34,000  Level FlightAware
10:00AM 64.4470 -25.5550 312° West 560 644 34,000  Level FlightAware
10:01AM 64.5200 -25.7440 312° West 561 646 34,000  Level FlightAware
10:02AM 64.6170 -25.9960 312° West 562 647 34,000  Level FlightAware
10:02AM 64.6730 -26.1480 311° West 562 647 34,000  Level FlightAware
10:03AM 64.7610 -26.3870 311° West 562 647 34,000  Level FlightAware
10:04AM 64.8120 -26.5240 311° West 562 647 34,000  Level FlightAware
10:05AM 64.8980 -26.7550 311° West 562 647 34,000  Level FlightAware
10:06AM 64.9500 -26.8970 311° West 562 647 34,000  Level FlightAware
10:06AM 65.0220 -27.0940 311° West 562 647 34,000  Level FlightAware
10:07AM 65.0740 -27.2370 311° West 562 647 34,000  Level FlightAware
10:08AM 65.1450 -27.4310 311° West 562 647 34,000  Level FlightAware
10:08AM 65.1980 -27.5740 311° West 562 647 34,000  Level FlightAware
10:09AM 65.2690 -27.7690 311° West 562 647 34,000  Level FlightAware
10:10AM 65.3250 -27.9250 311° West 562 647 34,000  Level FlightAware
10:11AM 65.3900 -28.1050 311° West 562 647 34,000  Level FlightAware
10:11AM 65.4400 -28.2410 312° West 562 647 34,000  Level FlightAware
10:14AM 65.5421 -28.8871 291° West  Level Estimated
10:15AM 65.5870 -29.1780 291° West  Level Estimated
10:16AM 65.6312 -29.4700 290° West  Level Estimated
10:17AM 65.6749 -29.7629 290° West  Level Estimated
10:18AM 65.7181 -30.0568 290° West  Level Estimated
10:19AM 65.7607 -30.3517 289° West  Level Estimated
10:20AM 65.8027 -30.6475 289° West  Level Estimated
10:21AM 65.8441 -30.9443 289° West  Level Estimated
10:22AM 65.8850 -31.2421 289° West  Level Estimated
10:23AM 65.9252 -31.5408 288° West  Level Estimated
10:24AM 65.9650 -31.8405 288° West  Level Estimated
10:25AM 66.0041 -32.1410 288° West  Level Estimated
10:26AM 66.0426 -32.4425 288° West  Level Estimated
10:27AM 66.0805 -32.7449 287° West  Level Estimated
10:28AM 66.1179 -33.0482 287° West  Level Estimated
10:29AM 66.1546 -33.3524 287° West  Level Estimated
10:30AM 66.1908 -33.6574 286° West  Level Estimated
10:31AM 66.2263 -33.9633 286° West  Level Estimated
10:32AM 66.2613 -34.2701 286° West  Level Estimated
10:33AM 66.2956 -34.5777 286° West  Level Estimated
10:34AM 66.3294 -34.8862 285° West  Level Estimated
10:35AM 66.3625 -35.1954 285° West  Level Estimated
10:36AM 66.3950 -35.5055 285° West  Level Estimated
10:37AM 66.4268 -35.8164 285° West  Level Estimated
10:38AM 66.4581 -36.1281 284° West  Level Estimated
10:39AM 66.4887 -36.4405 284° West  Level Estimated
10:40AM 66.5188 -36.7537 284° West  Level Estimated
10:41AM 66.5482 -37.0677 283° West  Level Estimated
10:42AM 66.5769 -37.3824 283° West  Level Estimated
10:43AM 66.6050 -37.6978 283° West  Level Estimated
10:44AM 66.6325 -38.0139 283° West  Level Estimated
10:45AM 66.6594 -38.3307 282° West  Level Estimated
10:46AM 66.6856 -38.6482 282° West  Level Estimated
10:47AM 66.7112 -38.9663 282° West  Level Estimated
10:48AM 66.7361 -39.2851 281° West  Level Estimated
10:49AM 66.7604 -39.6046 281° West  Level Estimated
10:50AM 66.7841 -39.9247 281° West  Level Estimated
10:51AM 66.8071 -40.2453 280° West  Level Estimated
10:52AM 66.8294 -40.5666 280° West  Level Estimated
10:53AM 66.8511 -40.8885 280° West  Level Estimated
10:54AM 66.8721 -41.2109 280° West  Level Estimated
10:55AM 66.8925 -41.5338 279° West  Level Estimated
10:56AM 66.9122 -41.8573 279° West  Level Estimated
10:57AM 66.9313 -42.1813 279° West  Level Estimated
10:58AM 66.9497 -42.5058 278° West  Level Estimated
10:59AM 66.9674 -42.8308 278° West  Level Estimated
11:00AM 66.9845 -43.1563 278° West  Level Estimated
11:01AM 67.0009 -43.4822 277° West  Level Estimated
11:02AM 67.0166 -43.8085 277° West  Level Estimated
11:03AM 67.0317 -44.1352 277° West  Level Estimated
11:04AM 67.0461 -44.4624 277° West  Level Estimated
11:05AM 67.0598 -44.7899 276° West  Level Estimated
11:06AM 67.0729 -45.1178 276° West  Level Estimated
11:07AM 67.0853 -45.4460 276° West  Level Estimated
11:08AM 67.0970 -45.7745 275° West  Level Estimated
11:09AM 67.1080 -46.1034 275° West  Level Estimated
11:10AM 67.1184 -46.4325 275° West  Level Estimated
11:11AM 67.1280 -46.7620 274° West  Level Estimated
11:12AM 67.1370 -47.0916 274° West  Level Estimated
11:13AM 67.1453 -47.4216 274° West  Level Estimated
11:14AM 67.1530 -47.7517 274° West  Level Estimated
11:15AM 67.1599 -48.0820 273° West  Level Estimated
11:16AM 67.1662 -48.4125 273° West  Level Estimated
11:17AM 67.1718 -48.7432 273° West  Level Estimated
11:18AM 67.1767 -49.0740 272° West  Level Estimated
11:19AM 67.1809 -49.4050 272° West  Level Estimated
11:20AM 67.1845 -49.7360 272° West  Level Estimated
11:21AM 67.1873 -50.0672 271° West  Level Estimated
11:22AM 67.1895 -50.3984 271° West  Level Estimated
11:23AM 67.1910 -50.7296 271° West  Level Estimated
11:24AM 67.1918 -51.0609 271° West  Level Estimated
11:25AM 67.1919 -51.3922 270° West  Level Estimated
11:26AM 67.1914 -51.7235 270° West  Level Estimated
11:27AM 67.1901 -52.0548 270° West  Level Estimated
11:28AM 67.1882 -52.3860 269° West  Level Estimated
11:29AM 67.1855 -52.7172 269° West  Level Estimated
11:30AM 67.1823 -53.0482 269° West  Level Estimated
11:31AM 67.1783 -53.3792 268° West  Level Estimated
11:32AM 67.1736 -53.7101 268° West  Level Estimated
11:33AM 67.1682 -54.0408 268° West  Level Estimated
11:34AM 67.1622 -54.3714 267° West  Level Estimated
11:35AM 67.1555 -54.7018 267° West  Level Estimated
11:36AM 67.1481 -55.0320 267° West  Level Estimated
11:37AM 67.1400 -55.3620 267° West  Level Estimated
11:38AM 67.1312 -55.6917 266° West  Level Estimated
11:39AM 67.1218 -56.0213 266° West  Level Estimated
11:40AM 67.1117 -56.3505 266° West  Level Estimated
11:41AM 67.1009 -56.6795 265° West  Level Estimated
11:42AM 67.0894 -57.0081 265° West  Level Estimated
11:43AM 67.0773 -57.3365 265° West  Level Estimated
11:44AM 67.0645 -57.6645 264° West  Level Estimated
11:45AM 67.0510 -57.9921 264° West  Level Estimated
11:46AM 67.0368 -58.3194 264° West  Level Estimated
11:47AM 67.0220 -58.6463 264° West  Level Estimated
11:48AM 67.0060 -58.9839 263° West  Level Estimated
11:49AM 66.9892 -59.3212 263° West  Level Estimated
11:50AM 66.9717 -59.6579 263° West  Level Estimated
11:51AM 66.9535 -59.9942 262° West  Level Estimated
11:52AM 66.9346 -60.3299 262° West  Level Estimated
11:53AM 66.9150 -60.6651 262° West  Level Estimated
11:54AM 66.8947 -60.9998 261° West  Level Estimated
11:55AM 66.8737 -61.3339 261° West  Level Estimated
11:56AM 66.8520 -61.6675 261° West  Level Estimated
11:57AM 66.8295 -62.0004 260° West  Level Estimated
11:58AM 66.8064 -62.3327 260° West  Level Estimated
11:59AM 66.7826 -62.6644 260° West  Level Estimated
12:00PM 66.7581 -62.9954 260° West  Level Estimated
12:01PM 66.7329 -63.3257 259° West  Level Estimated
12:02PM 66.7070 -63.6554 259° West  Level Estimated
12:03PM 66.6804 -63.9844 259° West  Level Estimated
12:04PM 66.6532 -64.3126 258° West  Level Estimated
12:05PM 66.6252 -64.6401 258° West  Level Estimated
12:06PM 66.5966 -64.9669 258° West  Level Estimated
12:07PM 66.5673 -65.2929 257° West  Level Estimated
12:08PM 66.5373 -65.6181 257° West  Level Estimated
12:09PM 66.5067 -65.9426 257° West  Level Estimated
12:10PM 66.4753 -66.2662 257° West  Level Estimated
12:11PM 66.4434 -66.5890 256° West  Level Estimated
12:12PM 66.4107 -66.9110 256° West  Level Estimated
12:13PM 66.3774 -67.2321 256° West  Level Estimated
12:14PM 66.3434 -67.5524 255° West  Level Estimated
12:15PM 66.3088 -67.8718 255° West  Level Estimated
12:16PM 66.2742 -68.1844 255° West  Level Estimated
12:17PM 66.2389 -68.4962 254° West  Level Estimated
12:18PM 66.2030 -68.8071 254° West  Level Estimated
12:19PM 66.1665 -69.1170 254° West  Level Estimated
12:20PM 66.1294 -69.4261 254° West  Level Estimated
12:21PM 66.0917 -69.7343 253° West  Level Estimated
12:22PM 66.0534 -70.0415 253° West  Level Estimated
12:23PM 66.0144 -70.3478 253° West  Level Estimated
12:24PM 65.9749 -70.6532 252° West  Level Estimated
12:25PM 65.9347 -70.9577 252° West  Level Estimated
12:26PM 65.8939 -71.2611 252° West  Level Estimated
12:27PM 65.8526 -71.5636 252° West  Level Estimated
12:28PM 65.8106 -71.8651 251° West  Level Estimated
12:29PM 65.7681 -72.1657 251° West  Level Estimated
12:30PM 65.7250 -72.4652 251° West  Level Estimated
12:31PM 65.6812 -72.7637 251° West  Level Estimated
12:32PM 65.6369 -73.0612 250° West  Level Estimated
12:33PM 65.5921 -73.3577 250° West  Level Estimated
12:34PM 65.5466 -73.6532 250° West  Level Estimated
12:35PM 65.5006 -73.9476 249° West  Level Estimated
12:36PM 65.4540 -74.2410 249° West  Level Estimated
12:37PM 65.4068 -74.5333 249° West  Level Estimated
12:38PM 65.3591 -74.8246 249° West  Level Estimated
12:39PM 65.3108 -75.1149 248° West  Level Estimated
12:40PM 65.2620 -75.4040 248° West  Level Estimated
12:41PM 65.2126 -75.6921 248° West  Level Estimated
12:42PM 65.1627 -75.9791 248° West  Level Estimated
12:43PM 65.1122 -76.2650 247° West  Level Estimated
12:44PM 65.0612 -76.5498 247° West  Level Estimated
12:45PM 65.0096 -76.8335 247° West  Level Estimated
12:46PM 64.9575 -77.1162 247° West  Level Estimated
12:47PM 64.9049 -77.3977 246° West  Level Estimated
12:48PM 64.8517 -77.6781 246° West  Level Estimated
12:49PM 64.7980 -77.9574 246° West  Level Estimated
12:50PM 64.7438 -78.2356 246° West  Level Estimated
12:51PM 64.6891 -78.5127 245° Southwest  Level Estimated
12:52PM 64.6338 -78.7886 245° Southwest  Level Estimated
12:53PM 64.5781 -79.0635 245° Southwest  Level Estimated
12:54PM 64.5218 -79.3372 245° Southwest  Level Estimated
12:55PM 64.4650 -79.6097 244° Southwest  Level Estimated
12:56PM 64.4077 -79.8811 244° Southwest  Level Estimated
12:57PM 64.3500 -80.1514 244° Southwest  Level Estimated
12:58PM 64.2917 -80.4206 244° Southwest  Level Estimated
12:59PM 64.2329 -80.6886 243° Southwest  Level Estimated
01:00PM 64.1737 -80.9555 243° Southwest  Level Estimated
01:01PM 64.1140 -81.2212 243° Southwest  Level Estimated
01:02PM 64.0537 -81.4858 243° Southwest  Level Estimated
01:03PM 63.9930 -81.7493 242° Southwest  Level Estimated
01:04PM 63.9319 -82.0116 242° Southwest  Level Estimated
01:05PM 63.8702 -82.2727 242° Southwest  Level Estimated
01:06PM 63.8081 -82.5327 242° Southwest  Level Estimated
01:07PM 63.7455 -82.7916 241° Southwest  Level Estimated
01:08PM 63.6825 -83.0493 241° Southwest  Level Estimated
01:09PM 63.6190 -83.3059 241° Southwest  Level Estimated
01:10PM 63.5550 -83.5613 241° Southwest  Level Estimated
01:11PM 63.4906 -83.8155 241° Southwest  Level Estimated
01:12PM 63.4258 -84.0687 240° Southwest  Level Estimated
01:13PM 63.3605 -84.3206 240° Southwest  Level Estimated
01:14PM 63.2947 -84.5714 240° Southwest  Level Estimated
01:15PM 63.2286 -84.8211 240° Southwest  Level Estimated
01:16PM 63.1619 -85.0697 239° Southwest  Level Estimated
01:17PM 63.0949 -85.3170 239° Southwest  Level Estimated
01:18PM 63.0274 -85.5633 239° Southwest  Level Estimated
01:19PM 62.9595 -85.8084 239° Southwest  Level Estimated
01:20PM 62.8912 -86.0524 239° Southwest  Level Estimated
01:21PM 62.8224 -86.2952 238° Southwest  Level Estimated
01:22PM 62.7533 -86.5369 238° Southwest  Level Estimated
01:23PM 62.6837 -86.7775 238° Southwest  Level Estimated
01:24PM 62.6137 -87.0169 238° Southwest  Level Estimated
01:25PM 62.5433 -87.2552 237° Southwest  Level Estimated
01:26PM 62.4725 -87.4924 237° Southwest  Level Estimated
01:27PM 62.4014 -87.7284 237° Southwest  Level Estimated
01:28PM 62.3298 -87.9633 237° Southwest  Level Estimated
01:29PM 62.2578 -88.1972 237° Southwest  Level Estimated
01:30PM 62.1854 -88.4298 236° Southwest  Level Estimated
01:31PM 62.1126 -88.6614 236° Southwest  Level Estimated
01:32PM 62.0395 -88.8919 236° Southwest  Level Estimated
01:33PM 61.9660 -89.1212 236° Southwest  Level Estimated
01:34PM 61.8920 -89.3495 236° Southwest  Level Estimated
01:35PM 61.8177 -89.5766 235° Southwest  Level Estimated
01:36PM 61.7431 -89.8027 235° Southwest  Level Estimated
01:37PM 61.6681 -90.0276 235° Southwest  Level Estimated
01:38PM 61.5927 -90.2515 235° Southwest  Level Estimated
01:39PM 61.5169 -90.4743 235° Southwest  Level Estimated
01:40PM 61.4408 -90.6959 234° Southwest  Level Estimated
01:41PM 61.3643 -90.9165 234° Southwest  Level Estimated
01:42PM 61.2875 -91.1361 234° Southwest  Level Estimated
01:43PM 61.2103 -91.3545 234° Southwest  Level Estimated
01:44PM 61.1327 -91.5719 234° Southwest  Level Estimated
01:45PM 61.0548 -91.7882 233° Southwest  Level Estimated
01:46PM 60.9766 -92.0034 233° Southwest  Level Estimated
01:47PM 60.8980 -92.2176 233° Southwest  Level Estimated
01:48PM 60.8191 -92.4308 233° Southwest  Level Estimated
01:49PM 60.7399 -92.6429 233° Southwest  Level Estimated
01:50PM 60.6603 -92.8539 232° Southwest  Level Estimated
01:51PM 60.5804 -93.0639 232° Southwest  Level Estimated
01:52PM 60.5001 -93.2728 232° Southwest  Level Estimated
01:53PM 60.4196 -93.4807 232° Southwest  Level Estimated
01:54PM 60.3387 -93.6876 232° Southwest  Level Estimated
01:55PM 60.2575 -93.8935 232° Southwest  Level Estimated
01:56PM 60.1760 -94.0983 231° Southwest  Level Estimated
01:57PM 60.0941 -94.3022 231° Southwest  Level Estimated
01:58PM 60.0120 -94.5050 231° Southwest  Level Estimated
01:58PM 59.6167 -96.9833 230° Southwest 440 506 36,000  Level Edmonton Center
01:59PM 59.9295 -94.7068 231° Southwest  Level Estimated
01:59PM 59.5000 -97.1833 221° Southwest 440 506 36,000  Level Edmonton Center
02:00PM 59.8468 -94.9076 231° Southwest  Level Estimated
02:00PM 59.4333 -97.3000 222° Southwest 420 483 36,000  Level Edmonton Center
02:01PM 59.7637 -95.1074 231° Southwest  Level Estimated
02:01PM 59.3167 -97.5333 226° Southwest 460 529 36,000  Level Edmonton Center
02:02PM 59.6803 -95.3062 230° Southwest  Level Estimated
02:02PM 59.2333 -97.6833 223° Southwest 450 518 36,000  Level Edmonton Center
02:03PM 59.5966 -95.5041 230° Southwest  Level Estimated
02:03PM 59.1333 -97.8333 218° Southwest 450 518 36,000  Level Edmonton Center
02:04PM 59.0333 -98.0167 223° Southwest 460 529 36,000  Level Edmonton Center
02:05PM 58.9500 -98.2000 229° Southwest 450 518 36,000  Level Edmonton Center
02:06PM 58.8500 -98.3500 218° Southwest 460 529 36,000  Level Edmonton Center
02:07PM 58.7667 -98.5333 229° Southwest 450 518 36,000  Level Edmonton Center
02:08PM 58.6667 -98.6833 218° Southwest 460 529 36,000  Level Edmonton Center
02:09PM 58.5667 -98.8667 224° Southwest 450 518 36,000  Level Edmonton Center
02:10PM 58.4833 -99.0167 223° Southwest 450 518 36,000  Level Edmonton Center
02:11PM 58.3833 -99.2000 224° Southwest 460 529 36,000  Level Edmonton Center
02:12PM 58.2833 -99.3333 215° Southwest 450 518 36,000  Level Edmonton Center
02:13PM 58.2000 -99.5167 229° Southwest 450 518 36,000 180 Level Edmonton Center
02:14PM 58.0833 -99.6667 214° Southwest 460 529 36,400 660 Climbing Edmonton Center
02:16PM 57.8833 -99.9833 220° Southwest 450 518 38,000 660 Climbing Edmonton Center
02:16PM 57.8667 -100.0667 249° West 460 529 38,000  Level Winnipeg Center
02:17PM 57.7667 -100.2500 224° Southwest 460 529 38,000  Level Winnipeg Center
02:18PM 57.6833 -100.4000 224° Southwest 460 529 38,000  Level Winnipeg Center
02:19PM 57.6000 -100.5500 224° Southwest 460 529 38,000  Level Winnipeg Center
02:20PM 57.5000 -100.6000 195° South 450 518 38,000  Level Edmonton Center
02:20PM 57.4833 -100.7000 253° West 460 529 38,000  Level Winnipeg Center
02:21PM 57.3833 -100.8333 216° Southwest 460 529 38,000  Level Winnipeg Center
02:22PM 57.3000 -101.0167 230° Southwest 460 529 38,000  Level Winnipeg Center
02:23PM 57.1833 -101.1667 215° Southwest 460 529 38,000  Level Winnipeg Center
02:24PM 57.0833 -101.3000 216° Southwest 460 529 38,000  Level Winnipeg Center
02:25PM 57.0000 -101.4500 224° Southwest 460 529 38,000  Level Winnipeg Center
02:26PM 56.8833 -101.6167 218° Southwest 450 518 38,000  Level Winnipeg Center
02:27PM 56.8333 -101.6667 209° Southwest 450 518 38,000  Level Edmonton Center
02:28PM 56.7333 -101.8000 216° Southwest 450 518 38,000  Level Edmonton Center
02:29PM 56.6333 -101.9667 223° Southwest 450 518 38,000  Level Edmonton Center
02:30PM 56.5000 -102.2000 224° Southwest 460 529 38,000  Level Winnipeg Center
02:31PM 56.4167 -102.3500 225° Southwest 460 529 38,000  Level Winnipeg Center
02:32PM 56.3167 -102.4833 217° Southwest 460 529 38,000  Level Winnipeg Center
02:33PM 56.2333 -102.6500 228° Southwest 460 529 38,000  Level Winnipeg Center
02:34PM 56.1333 -102.8167 223° Southwest 460 529 38,000  Level Winnipeg Center
02:35PM 56.0500 -102.9833 228° Southwest 460 529 38,000  Level Winnipeg Center
02:36PM 55.9500 -103.1500 223° Southwest 460 529 38,000  Level Winnipeg Center
02:38PM 55.8167 -103.4000 227° Southwest 450 518 38,000  Level Edmonton Center
02:38PM 55.7833 -103.4833 235° Southwest 460 529 38,000  Level Winnipeg Center
02:39PM 55.7000 -103.6500 228° Southwest 460 529 38,000  Level Winnipeg Center
02:40PM 55.6333 -103.7333 215° Southwest 450 518 38,000  Level Edmonton Center
02:40PM 55.6000 -103.8167 235° Southwest 460 529 38,000  Level Winnipeg Center
02:41PM 55.5000 -103.9667 220° Southwest 460 529 38,000  Level Winnipeg Center
02:42PM 55.4167 -104.1333 229° Southwest 460 529 38,000  Level Winnipeg Center
02:43PM 55.3500 -104.1833 203° Southwest 460 529 38,000  Level Edmonton Center
02:43PM 55.3333 -104.3000 256° West 460 529 38,000  Level Winnipeg Center
02:44PM 55.2500 -104.4667 229° Southwest 470 541 38,000  Level Winnipeg Center
02:45PM 55.1333 -104.6167 216° Southwest 470 541 38,000  Level Winnipeg Center
02:46PM 55.0500 -104.7833 229° Southwest 470 541 38,000  Level Winnipeg Center
02:47PM 54.9667 -104.9333 226° Southwest 470 541 38,000  Level Winnipeg Center
02:49PM 54.7667 -105.2500 222° Southwest 470 541 38,000  Level Winnipeg Center
02:50PM 54.6833 -105.4000 226° Southwest 470 541 38,000  Level Winnipeg Center
02:51PM 54.5833 -105.5500 221° Southwest 470 541 38,000  Level Winnipeg Center
02:52PM 54.4833 -105.7333 227° Southwest 470 541 38,000  Level Winnipeg Center
02:53PM 54.3833 -105.9000 224° Southwest 470 541 38,000  Level Winnipeg Center
02:54PM 54.3000 -106.0500 226° Southwest 470 541 38,000  Level Winnipeg Center
02:55PM 54.2000 -106.2000 221° Southwest 470 541 38,000  Level Winnipeg Center
02:56PM 54.1000 -106.3500 221° Southwest 470 541 38,000  Level Winnipeg Center
02:57PM 54.0167 -106.5000 227° Southwest 470 541 38,000  Level Winnipeg Center
02:58PM 53.9167 -106.6500 221° Southwest 470 541 38,000  Level Winnipeg Center
02:59PM 53.8167 -106.8000 222° Southwest 470 541 38,000  Level Winnipeg Center
03:00PM 53.7333 -106.8833 211° Southwest 470 541 38,000  Level Edmonton Center
03:01PM 53.6500 -107.0167 224° Southwest 470 541 38,000  Level Edmonton Center
03:01PM 53.6167 -107.1000 236° Southwest 470 541 38,000  Level Winnipeg Center
03:02PM 53.5333 -107.2333 224° Southwest 480 552 38,000  Level Winnipeg Center
03:03PM 53.4333 -107.4167 228° Southwest 470 541 38,000  Level Winnipeg Center
03:04PM 53.3333 -107.5667 222° Southwest 470 541 38,000  Level Winnipeg Center
03:06PM 53.1333 -107.8500 220° Southwest 480 552 38,000  Level Winnipeg Center
03:07PM 53.0333 -108.0000 222° Southwest 470 541 38,000  Level Winnipeg Center
03:08PM 52.9333 -108.1333 219° Southwest 470 541 38,000  Level Winnipeg Center
03:09PM 52.8333 -108.2833 222° Southwest 470 541 38,000  Level Winnipeg Center
03:10PM 52.7333 -108.4500 225° Southwest 470 541 38,000  Level Winnipeg Center
03:11PM 52.6667 -108.6000 234° Southwest 470 541 38,000  Level Winnipeg Center
03:12PM 52.6000 -108.6333 197° South 460 529 38,000  Level Edmonton Center
03:13PM 52.4833 -108.8000 221° Southwest 460 529 38,000  Level Edmonton Center
03:13PM 52.4833 -108.8833 270° West 470 541 38,000  Level Winnipeg Center
03:18PM 51.9720 -109.6630 270° West 38,000  Level FlightAware
03:19PM 51.9010 -109.7710 223° Southwest 471 542 38,000  Level FlightAware
03:20PM 51.8190 -109.8980 224° Southwest 472 543 38,000  Level FlightAware
03:21PM 51.7670 -109.9770 223° Southwest 472 543 38,000  Level FlightAware
03:21PM 51.7020 -110.0740 223° Southwest 467 537 38,000  Level FlightAware
03:22PM 51.6270 -110.1770 220° Southwest 468 539 38,000  Level FlightAware
03:23PM 51.5840 -110.2340 219° Southwest 468 539 38,000  Level FlightAware
03:23PM 51.4960 -110.3560 221° Southwest 469 540 38,000  Level FlightAware
03:24PM 51.4290 -110.4510 221° Southwest 469 540 38,000  Level FlightAware
03:25PM 51.3540 -110.5540 221° Southwest 469 540 38,000  Level FlightAware
03:25PM 51.2860 -110.6480 221° Southwest 469 540 38,000  Level FlightAware
03:26PM 51.2090 -110.7500 220° Southwest 471 542 38,000  Level FlightAware
03:27PM 51.1440 -110.8390 221° Southwest 471 542 38,000  Level FlightAware
03:28PM 51.0680 -110.9410 220° Southwest 472 543 38,000  Level FlightAware
03:28PM 50.9990 -111.0350 221° Southwest 472 543 38,000  Level FlightAware
03:29PM 50.9330 -111.1230 220° Southwest 472 543 38,000  Level FlightAware
03:30PM 50.8700 -111.2060 220° Southwest 472 543 38,000  Level FlightAware
03:30PM 50.7880 -111.3170 221° Southwest 479 551 38,000  Level FlightAware
03:31PM 50.7120 -111.4180 220° Southwest 479 551 38,000  Level FlightAware
03:32PM 50.6350 -111.5190 220° Southwest 480 552 38,000  Level FlightAware
03:33PM 50.5660 -111.6080 219° Southwest 482 555 38,000  Level FlightAware
03:33PM 50.4980 -111.6980 220° Southwest 482 555 38,000  Level FlightAware
03:34PM 50.4280 -111.7900 220° Southwest 484 557 38,000  Level FlightAware
03:35PM 50.3510 -111.8880 219° Southwest 485 558 38,000  Level FlightAware
03:35PM 50.2820 -111.9780 220° Southwest 479 551 38,000  Level FlightAware
03:36PM 50.2120 -112.0670 219° Southwest 480 552 38,000  Level FlightAware
03:37PM 50.1350 -112.1670 220° Southwest 479 551 38,000  Level FlightAware
03:37PM 50.0550 -112.2680 219° Southwest 478 550 38,000  Level FlightAware
03:38PM 49.9880 -112.3540 220° Southwest 483 556 38,000  Level FlightAware
03:39PM 49.9100 -112.4530 219° Southwest 482 555 38,000  Level FlightAware
03:39PM 49.8490 -112.5290 219° Southwest 476 548 38,000  Level FlightAware
03:40PM 49.7720 -112.6250 219° Southwest 476 548 38,000  Level FlightAware
03:41PM 49.6920 -112.7260 219° Southwest 475 547 38,000  Level FlightAware
03:42PM 49.6240 -112.8110 219° Southwest 476 548 38,000  Level FlightAware
03:42PM 49.5530 -112.8990 219° Southwest 475 547 38,000  Level FlightAware
03:43PM 49.4790 -112.9910 219° Southwest 476 548 38,000  Level FlightAware
03:44PM 49.4080 -113.0760 218° Southwest 476 548 38,000  Level FlightAware
03:44PM 49.3370 -113.1640 219° Southwest 476 548 38,000  Level FlightAware
03:45PM 49.2590 -113.2600 219° Southwest 477 549 38,000  Level FlightAware
03:46PM 49.1880 -113.3450 218° Southwest 478 550 38,000  Level FlightAware
03:46PM 49.1190 -113.4300 219° Southwest 478 550 38,000  Level FlightAware
03:47PM 49.0390 -113.5260 218° Southwest 480 552 38,000  Level FlightAware
03:49PM 48.8960 -113.7180 221° Southwest 482 555 38,000  Level FlightAware
03:49PM 48.8340 -113.8030 222° Southwest 482 555 38,000  Level FlightAware
03:50PM 48.7140 -113.9700 223° Southwest 482 555 38,000  Level FlightAware
03:51PM 48.6490 -114.0600 222° Southwest 482 555 38,000  Level FlightAware
03:52PM 48.5710 -114.1670 222° Southwest 483 556 38,000  Level FlightAware
03:52PM 48.5050 -114.2570 222° Southwest 488 562 38,000  Level FlightAware
03:53PM 48.4360 -114.3690 227° Southwest 485 558 38,000  Level FlightAware
03:54PM 48.3600 -114.4950 228° Southwest 479 551 38,000  Level FlightAware
03:55PM 48.2550 -114.6620 227° Southwest 479 551 38,000  Level FlightAware
03:56PM 48.2090 -114.7360 227° Southwest 479 551 38,000  Level FlightAware
03:57PM 48.1490 -114.8310 227° Southwest 479 551 38,000  Level FlightAware
03:57PM 48.0900 -114.9260 227° Southwest 479 551 38,000  Level FlightAware
03:58PM 48.0420 -115.0050 228° Southwest 479 551 38,000  Level FlightAware
03:59PM 47.9980 -115.0750 227° Southwest 479 551 38,000  Level FlightAware
03:59PM 47.9350 -115.1750 227° Southwest 479 551 38,000  Level FlightAware
04:00PM 47.8870 -115.2510 227° Southwest 479 551 38,000  Level FlightAware
04:01PM 47.8370 -115.3320 227° Southwest 479 551 38,000  Level FlightAware
04:02PM 47.7740 -115.4320 227° Southwest 479 551 38,000  Level FlightAware
04:02PM 47.7290 -115.5040 227° Southwest 479 551 38,000  Level FlightAware
04:03PM 47.6700 -115.5980 227° Southwest 479 551 38,000  Level FlightAware
04:04PM 47.6240 -115.6710 227° Southwest 479 551 38,000  Level FlightAware
04:04PM 47.5610 -115.7720 227° Southwest 479 551 38,000  Level FlightAware
04:05PM 47.3469 -116.0581 227° Southwest 487 560 38,000  Level Salt Lake Center
04:06PM 47.2522 -116.2017 226° Southwest 488 562 38,000  Level Salt Lake Center
04:07PM 47.1572 -116.3431 225° Southwest 485 558 38,000  Level Salt Lake Center
04:12PM 46.6600 -117.0720 225° Southwest 478 550 38,000  Level FlightAware
04:13PM 46.5870 -117.1760 224° Southwest 476 548 38,000  Level FlightAware
04:14PM 46.5220 -117.2710 225° Southwest 475 547 38,000  Level FlightAware
04:14PM 46.4540 -117.3700 225° Southwest 474 545 38,000  Level FlightAware
04:15PM 46.3880 -117.4630 224° Southwest 473 544 38,000  Level FlightAware
04:16PM 46.3220 -117.5570 225° Southwest 474 545 38,000  Level FlightAware
04:16PM 46.2620 -117.6430 225° Southwest 473 544 38,000  Level FlightAware
04:17PM 46.1890 -117.7470 225° Southwest 473 544 38,000  Level FlightAware
04:18PM 46.1220 -117.8400 224° Southwest 471 542 38,000  Level FlightAware
04:19PM 46.0600 -117.9270 224° Southwest 471 542 38,000  Level FlightAware
04:19PM 45.9920 -118.0230 224° Southwest 470 541 38,000  Level FlightAware
04:20PM 45.9270 -118.1150 225° Southwest 470 541 38,000  Level FlightAware
04:21PM 45.8650 -118.2000 224° Southwest 470 541 38,000  Level FlightAware
04:21PM 45.7990 -118.2930 225° Southwest 470 541 38,000  Level FlightAware
04:22PM 45.7340 -118.3810 223° Southwest 470 541 38,000  Level FlightAware
04:23PM 45.6640 -118.4780 224° Southwest 469 540 38,000  Level FlightAware
04:23PM 45.6010 -118.5640 224° Southwest 468 539 38,000  Level FlightAware
04:24PM 45.5390 -118.6500 224° Southwest 468 539 38,000  Level FlightAware
04:25PM 45.4660 -118.7480 223° Southwest 468 539 38,000  Level FlightAware
04:26PM 45.4010 -118.8350 223° Southwest 469 540 38,000  Level FlightAware
04:26PM 45.3400 -118.9180 224° Southwest 469 540 38,000  Level FlightAware
04:27PM 45.2720 -119.0100 224° Southwest 470 541 38,000  Level FlightAware
04:28PM 45.2090 -119.0970 224° Southwest 470 541 38,000  Level FlightAware
04:28PM 45.1350 -119.1940 223° Southwest 470 541 38,000  Level FlightAware
04:29PM 45.0890 -119.2560 224° Southwest 470 541 38,000  Level FlightAware
04:30PM 45.0000 -119.3730 223° Southwest 470 541 38,000  Level FlightAware
04:31PM 44.9510 -119.4370 223° Southwest 470 541 38,000  Level FlightAware
04:31PM 44.9050 -119.4980 223° Southwest 470 541 38,000  Level FlightAware
04:32PM 44.8390 -119.5850 223° Southwest 470 541 38,000  Level FlightAware
04:33PM 44.7900 -119.6490 223° Southwest 470 541 38,000  Level FlightAware
04:33PM 44.7250 -119.7340 223° Southwest 470 541 38,000  Level FlightAware
04:34PM 44.6770 -119.7980 223° Southwest 470 541 38,000  Level FlightAware
04:35PM 44.6040 -119.8940 223° Southwest 470 541 38,000  Level FlightAware
04:36PM 44.5390 -119.9790 223° Southwest 470 541 38,000  Level FlightAware
04:36PM 44.4900 -120.0420 223° Southwest 470 541 38,000  Level FlightAware
04:37PM 44.4250 -120.1270 223° Southwest 470 541 38,000  Level FlightAware
04:38PM 44.3770 -120.1910 224° Southwest 470 541 38,000  Level FlightAware
04:43PM 43.6330 -120.6290 203° Southwest 473 544 38,000  Level FlightAware
04:43PM 43.5390 -120.6710 198° South 473 544 38,000  Level FlightAware
04:44PM 43.4660 -120.7030 198° South 474 545 38,000  Level FlightAware
04:45PM 43.3790 -120.7400 197° South 475 547 38,000  Level FlightAware
04:46PM 43.2780 -120.7840 198° South 475 547 38,000  Level FlightAware
04:46PM 43.1930 -120.8210 198° South 474 545 38,000  Level FlightAware
04:47PM 43.1020 -120.8610 198° South 474 545 38,000  Level FlightAware
04:48PM 43.0140 -120.8990 198° South 474 545 38,000 -420 Level FlightAware
04:48PM 42.9350 -120.9320 197° South 474 545 37,500 -780 Descending FlightAware
04:49PM 42.8490 -120.9700 198° South 474 545 37,000 -420 Descending FlightAware
04:50PM 42.7640 -121.0060 197° South 475 547 37,000  Level FlightAware
04:50PM 42.6610 -121.0500 197° South 476 548 37,000  Level FlightAware
04:51PM 42.5870 -121.0820 198° South 476 548 37,000  Level FlightAware
04:52PM 42.4860 -121.1250 197° South 476 548 37,000  Level FlightAware
04:52PM 42.4020 -121.1610 198° South 476 548 37,000  Level FlightAware
04:53PM 42.3170 -121.1960 197° South 477 549 37,000  Level FlightAware
04:55PM 42.2110 -121.2400 197° South 476 548 37,000  Level FlightAware
04:55PM 42.0900 -121.2910 197° South 476 548 37,000  Level FlightAware
04:56PM 41.9930 -121.3320 197° South 475 547 37,000  Level FlightAware
04:57PM 41.8960 -121.3720 197° South 476 548 37,000  Level FlightAware
04:57PM 41.7970 -121.4130 197° South 477 549 37,000  Level FlightAware
04:58PM 41.7150 -121.4470 197° South 478 550 37,000  Level FlightAware
04:59PM 41.6220 -121.4860 197° South 479 551 37,000  Level FlightAware
04:59PM 41.5370 -121.5210 197° South 479 551 37,000  Level FlightAware
05:00PM 41.4770 -121.5450 197° South 480 552 37,000  Level FlightAware
05:00PM 41.3930 -121.5800 197° South 479 551 37,000  Level FlightAware
05:01PM 41.3010 -121.6180 197° South 478 550 37,000  Level FlightAware
05:02PM 41.2170 -121.6510 196° South 479 551 37,000  Level FlightAware
05:03PM 41.1260 -121.6880 197° South 479 551 37,000  Level FlightAware
05:03PM 41.0450 -121.7210 197° South 480 552 37,000  Level FlightAware
05:04PM 40.9480 -121.7610 197° South 480 552 37,000  Level FlightAware
05:05PM 40.8040 -121.8190 197° South 471 542 37,000  Level FlightAware
05:06PM 40.7190 -121.8530 197° South 471 542 37,000  Level FlightAware
05:06PM 40.6230 -121.8910 197° South 472 543 37,000  Level FlightAware
05:07PM 40.5370 -121.9250 197° South 473 544 37,000  Level FlightAware
05:08PM 40.4410 -121.9630 197° South 472 543 37,000  Level FlightAware
05:09PM 40.3450 -122.0020 197° South 472 543 37,000  Level FlightAware
05:09PM 40.2600 -122.0350 197° South 472 543 37,000  Level FlightAware
05:10PM 40.1860 -122.0640 197° South 472 543 37,000  Level FlightAware
05:11PM 40.0770 -122.1070 197° South 479 551 37,000  Level FlightAware
05:12PM 39.9570 -122.1540 197° South 477 549 37,000  Level FlightAware
05:12PM 39.8700 -122.1880 197° South 476 548 37,000 -180 Level FlightAware
05:13PM 39.7810 -122.2220 196° South 478 550 36,800 -960 Descending FlightAware
05:14PM 39.6950 -122.2560 197° South 486 559 35,700 -1,260 Descending FlightAware
05:14PM 39.6040 -122.2910 197° South 481 554 35,100 -840 Descending FlightAware
05:15PM 39.4830 -122.3380 197° South 475 547 34,300 -1,260 Descending FlightAware
05:16PM 39.3880 -122.3740 196° South 490 564 33,000 -1,380 Descending FlightAware
05:17PM 39.3020 -122.4070 197° South 492 566 32,400 -900 Descending FlightAware
05:17PM 39.2130 -122.4410 196° South 490 564 31,800 -840 Descending FlightAware
05:18PM 39.1180 -122.4770 196° South 486 559 31,300 -780 Descending FlightAware
05:19PM 39.0260 -122.5130 197° South 483 556 30,700 -840 Descending FlightAware
05:20PM 38.9420 -122.5440 196° South 480 552 30,200 -720 Descending FlightAware
05:20PM 38.8530 -122.5780 197° South 476 548 29,700 -840 Descending FlightAware
05:21PM 38.7630 -122.6120 196° South 471 542 29,000 -1,680 Descending FlightAware
05:22PM 38.6760 -122.6450 196° South 461 531 27,400 -2,400 Descending FlightAware
05:22PM 38.5980 -122.6740 196° South 453 521 25,800 -2,400 Descending FlightAware
05:23PM 38.5070 -122.7090 197° South 442 509 24,100 -2,820 Descending FlightAware
05:24PM 38.4260 -122.7390 196° South 446 513 21,900 -3,000 Descending FlightAware
05:24PM 38.3420 -122.7700 196° South 440 506 20,000 -2,520 Descending FlightAware
05:25PM 38.2570 -122.8010 196° South 431 496 18,300 -2,400 Descending FlightAware
05:26PM 38.1800 -122.8300 196° South 419 482 16,700 -2,220 Descending FlightAware
05:27PM 38.1040 -122.8540 194° South 405 466 15,200 -2,160 Descending FlightAware
05:27PM 38.0540 -122.8400 168° South 396 456 14,200 -2,220 Descending FlightAware
05:28PM 37.9950 -122.7800 141° Southeast 387 445 12,700 -1,980 Descending FlightAware
05:28PM 37.9380 -122.7130 137° Southeast 370 426 11,400 -1,200 Descending FlightAware
05:29PM 37.8860 -122.6560 139° Southeast 335 386 11,000 -300 Descending FlightAware
05:30PM 37.8380 -122.6060 141° Southeast 291 335 11,000  Level FlightAware
05:30PM 37.8074 -122.5740 140° Southeast 271 312 11,000  Level FlightAware ADS-B
05:31PM 37.7715 -122.5360 140° Southeast 271 312 11,000  Level FlightAware ADS-B
05:31PM 37.7547 -122.5170 138° Southeast 272 313 11,000  Level FlightAware ADS-B
05:31PM 37.7505 -122.5110 132° Southeast 272 313 11,000  Level FlightAware ADS-B
05:32PM 37.7327 -122.4690 118° Southeast 253 291 11,000 -300 Level FlightAware ADS-B
05:33PM 37.7054 -122.3960 115° Southeast 241 277 10,600 -900 Descending FlightAware ADS-B
05:33PM 37.6982 -122.3770 116° Southeast 242 278 10,000 -2,340 Descending FlightAware ADS-B
05:33PM 37.6906 -122.3580 117° Southeast 242 278 9,400 -2,220 Descending FlightAware ADS-B
05:34PM 37.6824 -122.3350 114° Southeast 241 277 8,800 -2,100 Descending FlightAware ADS-B
05:34PM 37.6753 -122.3160 115° Southeast 237 273 8,300 -2,100 Descending FlightAware ADS-B
05:34PM 37.6712 -122.3060 117° Southeast 236 272 8,000 -2,040 Descending FlightAware ADS-B
05:34PM 37.6638 -122.2870 116° Southeast 233 268 7,500 -2,160 Descending FlightAware ADS-B
05:35PM 37.6564 -122.2690 117° Southeast 234 269 6,900 -2,160 Descending FlightAware ADS-B
05:35PM 37.6501 -122.2520 115° Southeast 237 273 6,500 -1,680 Descending FlightAware ADS-B
05:35PM 37.6425 -122.2330 117° Southeast 237 273 6,100 -1,020 Descending FlightAware ADS-B
05:35PM 37.6352 -122.2140 116° Southeast 237 273 6,000 -600 Descending FlightAware ADS-B
05:35PM 37.6322 -122.2060 115° Southeast 235 270 5,900 -540 Descending FlightAware ADS-B
05:35PM 37.6289 -122.1990 121° Southeast 233 268 5,900 -1,320 Level FlightAware ADS-B
05:36PM 37.6211 -122.1850 125° Southeast 232 267 5,500 -1,740 Descending FlightAware ADS-B
05:36PM 37.6115 -122.1680 125° Southeast 234 269 5,100 -1,020 Descending FlightAware ADS-B
05:36PM 37.6023 -122.1520 126° Southeast 224 258 5,000 -240 Descending FlightAware ADS-B
05:36PM 37.5935 -122.1360 125° Southeast 208 239 5,000  Level FlightAware ADS-B
05:37PM 37.5854 -122.1230 128° Southeast 205 236 5,000 -360 Level FlightAware ADS-B
05:37PM 37.5820 -122.1190 137° Southeast 204 235 4,900 -1,140 Descending FlightAware ADS-B
05:37PM 37.5771 -122.1170 162° South 201 231 4,800 -960 Descending FlightAware ADS-B
05:37PM 37.5698 -122.1150 168° South 202 232 4,700 -600 Descending FlightAware ADS-B
05:37PM 37.5660 -122.1150 180° South 201 231 4,700  Level FlightAware ADS-B
05:37PM 37.5627 -122.1160 194° South 200 230 4,700 -780 Level FlightAware ADS-B
05:37PM 37.5592 -122.1180 204° Southwest 198 228 4,600 -780 Descending FlightAware ADS-B
05:37PM 37.5562 -122.1200 208° Southwest 196 226 4,600 -720 Level FlightAware ADS-B
05:37PM 37.5500 -122.1310 235° Southwest 194 223 4,400 -780 Descending FlightAware ADS-B
05:38PM 37.5493 -122.1350 258° West 193 222 4,400  Level FlightAware ADS-B
05:38PM 37.5488 -122.1390 261° West 193 222 4,400 -900 Level FlightAware ADS-B
05:38PM 37.5488 -122.1430 270° West 191 220 4,300 -780 Descending FlightAware ADS-B
05:38PM 37.5493 -122.1480 277° West 189 217 4,300 -900 Level FlightAware ADS-B
05:38PM 37.5497 -122.1510 280° West 188 216 4,200 -1,020 Descending FlightAware ADS-B
05:38PM 37.5504 -122.1540 286° West 188 216 4,200 -780 Level FlightAware ADS-B
05:38PM 37.5517 -122.1590 288° West 186 214 4,100 -900 Descending FlightAware ADS-B
05:38PM 37.5565 -122.1740 292° West 182 209 3,900 -1,020 Descending FlightAware ADS-B
05:38PM 37.5610 -122.1890 291° West 175 201 3,600 -1,620 Descending FlightAware ADS-B
05:39PM 37.5656 -122.2040 291° West 181 208 3,100 -1,140 Descending FlightAware ADS-B
05:39PM 37.5708 -122.2220 290° West 175 201 3,000 -780 Descending FlightAware ADS-B
05:39PM 37.5723 -122.2280 288° West 169 194 2,800 -1,500 Descending FlightAware ADS-B
05:39PM 37.5733 -122.2340 282° West 165 190 2,700 -1,440 Descending FlightAware ADS-B
05:39PM 37.5759 -122.2480 283° West 165 190 2,300 -1,440 Descending FlightAware ADS-B
05:40PM 37.5786 -122.2610 285° West 158 182 2,000 -1,440 Descending FlightAware ADS-B
05:40PM 37.5798 -122.2670 284° West 156 180 1,800 -1,500 Descending FlightAware ADS-B
05:40PM 37.5809 -122.2720 286° West 152 175 1,700 -840 Descending FlightAware ADS-B
05:40PM 37.5829 -122.2790 290° West 145 167 1,600 -720 Descending FlightAware ADS-B
05:40PM 37.5849 -122.2850 293° West 142 163 1,500 -900 Descending FlightAware ADS-B
05:40PM 37.5865 -122.2900 292° West 144 166 1,400 -1,200 Descending FlightAware ADS-B
05:40PM 37.5905 -122.3000 297° West 145 167 1,100 -1,020 Descending FlightAware ADS-B
05:41PM 37.5957 -122.3120 299° West 142 163 900 -780 Descending FlightAware ADS-B
05:41PM 37.6007 -122.3250 296° West 144 166 700 -900 Descending FlightAware ADS-B
05:41PM 37.6036 -122.3330 295° West 148 170 500 -960 Descending FlightAware ADS-B
05:41PM 37.6084 -122.3440 299° West 146 168 300 -960 Descending FlightAware ADS-B
05:42PM 37.6116 -122.3520 297° West 145 167 100 -1,200 Descending FlightAware ADS-B
05:42PM 37.6148 -122.3590 300° West 144 166 -600 Descending FlightAware ADS-B